createdAt,value
2022-08-21T00:02:15.272Z,3.60
2022-08-21T00:04:48.402Z,3.43
2022-08-21T00:07:25.784Z,3.60
2022-08-21T00:09:54.362Z,3.78
2022-08-21T00:12:22.342Z,3.37
2022-08-21T00:14:49.848Z,4.00
2022-08-21T00:17:18.235Z,3.87
2022-08-21T00:19:45.676Z,4.07
2022-08-21T00:22:13.151Z,3.92
2022-08-21T00:24:40.949Z,3.95
2022-08-21T00:27:08.935Z,3.73
2022-08-21T00:29:36.421Z,4.00
2022-08-21T00:32:04.379Z,4.47
2022-08-21T00:34:31.894Z,4.37
2022-08-21T00:36:59.373Z,4.57
2022-08-21T00:39:27.161Z,4.55
2022-08-21T00:41:54.616Z,4.53
2022-08-21T00:44:22.097Z,4.97
2022-08-21T00:46:49.879Z,4.53
2022-08-21T00:49:17.366Z,5.20
2022-08-21T00:51:49.956Z,5.07
2022-08-21T00:54:20.103Z,4.97
2022-08-21T00:56:52.837Z,4.93
2022-08-21T00:59:21.548Z,4.80
2022-08-21T01:01:50.623Z,5.40
2022-08-21T01:04:18.343Z,5.37
2022-08-21T01:06:46.701Z,4.90
2022-08-21T01:09:15.098Z,5.40
2022-08-21T01:11:44.093Z,5.35
2022-08-21T01:14:13.570Z,5.93
2022-08-21T01:16:46.567Z,6.18
2022-08-21T01:19:15.148Z,5.72
2022-08-21T01:21:43.923Z,5.50
2022-08-21T01:24:11.999Z,5.80
2022-08-21T01:26:40.340Z,6.35
2022-08-21T01:29:17.726Z,6.53
2022-08-21T01:31:48.053Z,5.80
2022-08-21T01:34:17.000Z,5.55
2022-08-21T01:36:46.427Z,5.25
2022-08-21T01:39:14.074Z,5.57
2022-08-21T01:41:41.734Z,5.25
2022-08-21T01:44:09.696Z,6.10
2022-08-21T01:46:37.179Z,7.03
2022-08-21T01:49:06.063Z,6.10
2022-08-21T01:51:34.146Z,6.10
2022-08-21T01:54:01.595Z,5.75
2022-08-21T01:56:29.133Z,5.80
2022-08-21T01:58:56.932Z,6.28
2022-08-21T02:01:24.454Z,6.30
2022-08-21T02:03:52.342Z,5.90
2022-08-21T02:06:19.824Z,6.18
2022-08-21T02:08:47.815Z,6.32
2022-08-21T02:11:15.739Z,6.57
2022-08-21T02:13:43.344Z,6.47
2022-08-21T02:16:11.166Z,6.43
2022-08-21T02:18:41.159Z,6.40
2022-08-21T02:21:08.759Z,6.30
2022-08-21T02:23:36.480Z,7.10
2022-08-21T02:26:07.770Z,6.70
2022-08-21T02:28:36.082Z,6.82
2022-08-21T02:31:04.173Z,6.43
2022-08-21T02:33:31.740Z,6.40
2022-08-21T02:35:59.834Z,7.50
2022-08-21T02:38:30.577Z,7.30
2022-08-21T02:40:59.005Z,7.15
2022-08-21T02:43:28.301Z,7.30
2022-08-21T02:45:57.623Z,6.90
2022-08-21T02:48:28.383Z,7.10
2022-08-21T02:51:05.254Z,6.97
2022-08-21T02:53:33.086Z,7.62
2022-08-21T02:56:02.808Z,7.07
2022-08-21T02:58:36.989Z,7.33
2022-08-21T03:01:05.014Z,7.47
2022-08-21T03:03:32.543Z,7.20
2022-08-21T03:06:00.029Z,7.10
2022-08-21T03:08:28.046Z,7.43
2022-08-21T03:10:55.641Z,7.03
2022-08-21T03:13:23.592Z,7.40
2022-08-21T03:15:51.604Z,7.37
2022-08-21T03:18:19.317Z,7.65
2022-08-21T03:20:49.023Z,8.00
2022-08-21T03:23:18.589Z,8.00
2022-08-21T03:25:48.592Z,7.50
2022-08-21T03:28:22.466Z,7.75
2022-08-21T03:30:52.026Z,8.90
2022-08-21T03:33:23.170Z,7.55
2022-08-21T03:36:20.763Z,8.70
2022-08-21T03:38:48.232Z,8.82
2022-08-21T03:41:16.127Z,8.30
2022-08-21T03:43:43.579Z,8.70
2022-08-21T03:46:11.037Z,8.68
2022-08-21T03:48:39.812Z,9.23
2022-08-21T03:51:08.161Z,8.88
2022-08-21T03:53:36.211Z,9.10
2022-08-21T03:56:04.603Z,9.50
2022-08-21T03:58:32.206Z,10.05
2022-08-21T04:01:01.168Z,8.95
2022-08-21T04:03:29.185Z,9.00
2022-08-21T04:05:57.028Z,9.55
2022-08-21T04:08:24.867Z,8.93
2022-08-21T04:10:55.562Z,8.93
2022-08-21T04:13:23.067Z,9.70
2022-08-21T04:15:50.570Z,9.55
2022-08-21T04:18:18.510Z,9.38
2022-08-21T04:20:50.286Z,9.80
2022-08-21T04:23:23.572Z,9.50
2022-08-21T04:25:53.527Z,9.02
2022-08-21T04:28:23.286Z,9.15
2022-08-21T04:30:52.997Z,8.90
2022-08-21T04:33:22.537Z,9.13
2022-08-21T04:35:51.292Z,9.60
2022-08-21T04:38:19.431Z,8.77
2022-08-21T04:40:47.436Z,9.05
2022-08-21T04:43:15.082Z,9.57
2022-08-21T04:45:45.312Z,8.65
2022-08-21T04:48:15.855Z,8.48
2022-08-21T04:50:50.773Z,7.80
2022-08-21T04:53:28.832Z,7.80
2022-08-21T04:55:57.952Z,7.57
2022-08-21T04:58:27.201Z,7.62
2022-08-21T05:00:56.179Z,7.00
2022-08-21T05:03:23.833Z,7.22
2022-08-21T05:05:51.674Z,7.28
2022-08-21T05:08:20.933Z,6.68
2022-08-21T05:10:48.772Z,6.65
2022-08-21T05:13:17.005Z,6.53
2022-08-21T05:15:44.494Z,6.28
2022-08-21T05:18:12.060Z,6.05
2022-08-21T05:20:40.388Z,6.20
2022-08-21T05:23:10.000Z,5.93
2022-08-21T05:25:38.352Z,5.70
2022-08-21T05:28:07.379Z,5.60
2022-08-21T05:30:36.612Z,5.90
2022-08-21T05:33:05.739Z,5.47
2022-08-21T05:35:34.327Z,5.60
2022-08-21T05:38:02.157Z,5.70
2022-08-21T05:40:29.857Z,5.23
2022-08-21T05:42:58.388Z,5.32
2022-08-21T05:45:42.641Z,5.30
2022-08-21T05:48:20.162Z,5.10
2022-08-21T05:50:48.947Z,5.10
2022-08-21T05:53:18.385Z,5.00
2022-08-21T05:55:46.955Z,5.25
2022-08-21T05:58:17.169Z,5.30
2022-08-21T06:00:47.709Z,4.95
2022-08-21T06:03:24.999Z,5.10
2022-08-21T06:05:53.805Z,4.80
2022-08-21T06:08:22.424Z,4.68
2022-08-21T06:10:51.107Z,4.40
2022-08-21T06:13:20.714Z,4.68
2022-08-21T06:15:48.775Z,4.82
2022-08-21T06:18:17.161Z,4.95
2022-08-21T06:20:45.376Z,4.80
2022-08-21T06:23:13.884Z,5.15
2022-08-21T06:25:41.437Z,5.40
2022-08-21T06:28:10.887Z,5.70
2022-08-21T06:30:40.219Z,5.35
2022-08-21T06:33:08.060Z,5.80
2022-08-21T06:35:36.069Z,6.07
2022-08-21T06:38:04.302Z,5.57
2022-08-21T06:40:34.918Z,6.00
2022-08-21T06:43:08.465Z,5.95
2022-08-21T06:45:37.182Z,5.40
2022-08-21T06:48:05.214Z,5.80
2022-08-21T06:50:32.654Z,6.03
2022-08-21T06:53:12.229Z,6.00
2022-08-21T06:55:40.712Z,5.60
2022-08-21T06:58:08.870Z,5.73
2022-08-21T07:00:38.071Z,5.82
2022-08-21T07:03:05.520Z,5.55
2022-08-21T07:05:33.331Z,5.90
2022-08-21T07:08:01.212Z,5.10
2022-08-21T07:10:29.082Z,5.95
2022-08-21T07:13:01.281Z,5.93
2022-08-21T07:15:30.948Z,5.90
2022-08-21T07:18:02.416Z,6.22
2022-08-21T07:20:31.370Z,6.10
2022-08-21T07:23:06.700Z,6.00
2022-08-21T07:25:36.485Z,6.07
2022-08-21T07:28:04.330Z,5.90
2022-08-21T07:30:32.566Z,5.60
2022-08-21T07:33:00.317Z,5.68
2022-08-21T07:35:29.100Z,6.30
2022-08-21T07:37:56.682Z,6.00
2022-08-21T07:40:24.405Z,5.75
2022-08-21T07:42:52.905Z,6.05
2022-08-21T07:45:22.871Z,6.10
2022-08-21T07:47:54.157Z,6.05
2022-08-21T07:50:25.363Z,6.15
2022-08-21T07:52:53.614Z,6.20
2022-08-21T07:55:22.701Z,6.70
2022-08-21T07:57:50.973Z,5.97
2022-08-21T08:00:22.402Z,6.10
2022-08-21T08:02:51.928Z,5.93
2022-08-21T08:05:23.717Z,6.45
2022-08-21T08:07:51.605Z,6.70
2022-08-21T08:10:20.416Z,5.90
2022-08-21T08:12:48.642Z,6.62
2022-08-21T08:15:20.335Z,6.35
2022-08-21T08:17:49.281Z,5.90
2022-08-21T08:20:19.255Z,6.50
2022-08-21T08:22:50.234Z,6.57
2022-08-21T08:25:19.204Z,6.32
2022-08-21T08:27:46.900Z,6.20
2022-08-21T08:30:15.596Z,6.45
2022-08-21T08:32:43.724Z,6.40
2022-08-21T08:35:12.394Z,6.50
2022-08-21T08:37:42.619Z,6.37
2022-08-21T08:40:16.029Z,6.18
2022-08-21T08:42:43.760Z,6.30
2022-08-21T08:45:22.951Z,5.77
2022-08-21T08:47:58.805Z,6.35
2022-08-21T08:50:50.209Z,5.80
2022-08-21T08:53:28.669Z,6.13
2022-08-21T08:55:56.893Z,6.20
2022-08-21T08:58:28.002Z,5.80
2022-08-21T09:00:56.309Z,6.40
2022-08-21T09:03:25.338Z,6.73
2022-08-21T09:06:08.392Z,6.40
2022-08-21T09:08:35.975Z,6.90
2022-08-21T09:11:24.898Z,6.50
2022-08-21T09:13:55.603Z,7.12
2022-08-21T09:16:32.799Z,7.30
2022-08-21T09:19:24.906Z,7.50
2022-08-21T09:22:17.326Z,7.30
2022-08-21T09:24:56.302Z,7.60
2022-08-21T09:27:23.812Z,8.18
2022-08-21T09:29:55.233Z,7.30
2022-08-21T09:32:36.665Z,7.10
2022-08-21T09:35:05.679Z,6.85
2022-08-21T09:37:36.766Z,6.60
2022-08-21T09:40:31.611Z,6.43
2022-08-21T09:43:28.103Z,7.20
2022-08-21T09:46:13.165Z,6.60
2022-08-21T09:48:44.318Z,7.13
2022-08-21T09:51:15.933Z,6.80
2022-08-21T09:53:47.217Z,6.90
2022-08-21T09:56:41.649Z,6.82
2022-08-21T09:59:20.263Z,5.87
2022-08-21T10:01:51.669Z,7.05
2022-08-21T10:04:28.016Z,6.78
2022-08-21T10:06:58.177Z,7.05
2022-08-21T10:09:26.420Z,6.18
2022-08-21T10:12:01.921Z,6.50
2022-08-21T10:14:49.052Z,6.90
2022-08-21T10:17:30.364Z,6.85
2022-08-21T10:20:13.221Z,6.50
2022-08-21T10:22:55.844Z,6.95
2022-08-21T10:25:37.466Z,6.57
2022-08-21T10:28:13.820Z,6.55
2022-08-21T10:30:59.067Z,6.47
2022-08-21T10:33:44.272Z,6.10
2022-08-21T10:36:34.985Z,6.75
2022-08-21T10:39:35.777Z,6.55
2022-08-21T10:42:14.528Z,6.80
2022-08-21T10:44:50.565Z,7.05
2022-08-21T10:47:29.267Z,6.90
2022-08-21T10:50:09.314Z,6.65
2022-08-21T10:53:00.955Z,6.00
2022-08-21T10:55:36.889Z,7.10
2022-08-21T10:58:23.194Z,7.30
2022-08-21T11:00:54.827Z,6.80
2022-08-21T11:03:40.606Z,6.65
2022-08-21T11:06:21.619Z,6.30
2022-08-21T11:09:00.744Z,6.55
2022-08-21T11:11:47.039Z,6.12
2022-08-21T11:14:50.471Z,6.47
2022-08-21T11:17:25.193Z,6.12
2022-08-21T11:19:56.098Z,5.78
2022-08-21T11:22:36.963Z,6.35
2022-08-21T11:25:24.786Z,6.10
2022-08-21T11:28:00.589Z,6.18
2022-08-21T11:30:42.168Z,5.87
2022-08-21T11:33:20.237Z,5.90
2022-08-21T11:36:05.358Z,6.15
2022-08-21T11:38:43.101Z,6.50
2022-08-21T11:41:30.426Z,6.50
2022-08-21T11:44:24.236Z,6.20
2022-08-21T11:47:18.416Z,6.30
2022-08-21T11:50:29.887Z,6.75
2022-08-21T11:53:22.401Z,6.32
2022-08-21T11:55:59.200Z,6.40
2022-08-21T11:58:32.091Z,6.57
2022-08-21T12:01:05.234Z,6.70
2022-08-21T12:03:37.516Z,6.95
2022-08-21T12:06:11.504Z,7.00
2022-08-21T12:08:41.924Z,6.50
2022-08-21T12:11:19.489Z,6.30
2022-08-21T12:14:01.444Z,6.10
2022-08-21T12:16:34.404Z,6.18
2022-08-21T12:19:09.983Z,7.60
2022-08-21T12:21:56.447Z,7.00
2022-08-21T12:24:47.562Z,6.37
2022-08-21T12:27:27.501Z,6.20
2022-08-21T12:30:04.494Z,6.30
2022-08-21T12:32:45.724Z,6.87
2022-08-21T12:35:25.100Z,6.80
2022-08-21T12:38:18.443Z,6.47
2022-08-21T12:41:01.924Z,6.33
2022-08-21T12:43:41.127Z,6.25
2022-08-21T12:46:19.483Z,6.20
2022-08-21T12:48:55.803Z,5.50
2022-08-21T12:51:52.388Z,6.10
2022-08-21T12:54:33.093Z,5.07
2022-08-21T12:57:03.129Z,5.10
2022-08-21T12:59:31.499Z,5.07
2022-08-21T13:02:01.658Z,5.30
2022-08-21T13:04:41.152Z,5.03
2022-08-21T13:07:15.253Z,4.40
2022-08-21T13:09:52.310Z,4.40
2022-08-21T13:12:21.609Z,4.30
2022-08-21T13:14:50.346Z,3.83
2022-08-21T13:17:25.553Z,3.60
2022-08-21T13:20:21.612Z,3.35
2022-08-21T13:22:49.025Z,3.27
2022-08-21T13:25:18.902Z,3.60
2022-08-21T13:27:59.198Z,3.08
2022-08-21T13:30:26.880Z,2.90
2022-08-21T13:33:01.182Z,2.97
2022-08-21T13:35:38.184Z,3.10
2022-08-21T13:38:06.455Z,2.95
2022-08-21T13:40:43.238Z,3.10
2022-08-21T13:43:18.381Z,2.80
2022-08-21T13:45:51.965Z,3.03
2022-08-21T13:48:20.937Z,2.93
2022-08-21T13:50:48.933Z,2.97
2022-08-21T13:53:36.179Z,3.03
2022-08-21T13:56:05.657Z,3.00
2022-08-21T13:58:44.543Z,3.10
2022-08-21T14:01:33.622Z,3.00
2022-08-21T14:04:09.116Z,3.20
2022-08-21T14:06:39.699Z,3.33
2022-08-21T14:09:29.415Z,3.20
2022-08-21T14:11:57.997Z,2.83
2022-08-21T14:14:29.705Z,2.70
2022-08-21T14:17:13.539Z,2.67
2022-08-21T14:19:52.324Z,3.00
2022-08-21T14:22:47.091Z,2.70
2022-08-21T14:25:28.875Z,2.80
2022-08-21T14:27:57.681Z,2.47
2022-08-21T14:30:25.271Z,2.72
2022-08-21T14:32:53.025Z,2.80
2022-08-21T14:35:23.722Z,2.90
2022-08-21T14:37:53.223Z,2.95
2022-08-21T14:40:22.803Z,2.70
2022-08-21T14:42:53.130Z,2.75
2022-08-21T14:45:26.995Z,2.70
2022-08-21T14:47:56.251Z,2.45
2022-08-21T14:50:24.057Z,2.90
2022-08-21T14:52:59.183Z,2.92
2022-08-21T14:55:27.298Z,3.00
2022-08-21T14:57:55.940Z,2.60
2022-08-21T15:00:27.020Z,2.70
2022-08-21T15:03:03.992Z,2.92
2022-08-21T15:05:33.707Z,2.63
2022-08-21T15:08:02.426Z,2.80
2022-08-21T15:10:34.224Z,2.90
2022-08-21T15:13:02.353Z,3.17
2022-08-21T15:15:37.170Z,2.90
2022-08-21T15:18:04.619Z,2.90
2022-08-21T15:20:32.530Z,2.67
2022-08-21T15:23:00.004Z,2.60
2022-08-21T15:25:30.129Z,2.65
2022-08-21T15:27:58.005Z,2.70
2022-08-21T15:30:25.555Z,2.45
2022-08-21T15:32:53.090Z,2.70
2022-08-21T15:35:20.806Z,2.50
2022-08-21T15:37:48.234Z,2.70
2022-08-21T15:40:16.693Z,2.67
2022-08-21T15:42:44.826Z,2.97
2022-08-21T15:45:12.639Z,2.50
2022-08-21T15:47:46.503Z,2.67
2022-08-21T15:50:14.403Z,2.60
2022-08-21T15:52:44.913Z,2.67
2022-08-21T15:55:14.834Z,3.08
2022-08-21T15:57:57.433Z,3.00
2022-08-21T16:00:29.004Z,2.83
2022-08-21T16:02:58.779Z,3.20
2022-08-21T16:05:27.110Z,3.20
2022-08-21T16:07:54.568Z,3.30
2022-08-21T16:10:24.043Z,3.00
2022-08-21T16:13:00.558Z,2.83
2022-08-21T16:15:28.830Z,2.83
2022-08-21T16:17:56.506Z,3.00
2022-08-21T16:20:30.066Z,3.00
2022-08-21T16:22:59.302Z,2.72
2022-08-21T16:25:27.384Z,2.80
2022-08-21T16:27:59.613Z,3.00
2022-08-21T16:30:29.156Z,3.00
2022-08-21T16:32:56.981Z,2.90
2022-08-21T16:35:25.247Z,2.83
2022-08-21T16:37:53.577Z,2.97
2022-08-21T16:40:23.459Z,2.97
2022-08-21T16:42:51.292Z,3.00
2022-08-21T16:45:21.445Z,3.20
2022-08-21T16:47:49.887Z,3.20
2022-08-21T16:50:20.981Z,3.12
2022-08-21T16:52:48.932Z,3.33
2022-08-21T16:55:16.829Z,3.50
2022-08-21T16:57:44.258Z,3.58
2022-08-21T17:00:13.657Z,3.80
2022-08-21T17:02:44.965Z,3.95
2022-08-21T17:05:14.387Z,3.78
2022-08-21T17:07:43.086Z,3.73
2022-08-21T17:10:12.599Z,4.00
2022-08-21T17:12:43.043Z,4.03
2022-08-21T17:15:17.274Z,4.00
2022-08-21T17:17:50.353Z,3.90
2022-08-21T17:20:19.296Z,3.90
2022-08-21T17:22:46.772Z,4.18
2022-08-21T17:25:14.978Z,4.20
2022-08-21T17:27:44.211Z,4.18
2022-08-21T17:30:12.710Z,3.90
2022-08-21T17:32:41.413Z,4.20
2022-08-21T17:35:09.844Z,3.90
2022-08-21T17:37:37.841Z,4.25
2022-08-21T17:40:13.379Z,4.20
2022-08-21T17:42:42.586Z,4.10
2022-08-21T17:45:14.014Z,3.87
2022-08-21T17:47:41.688Z,4.40
2022-08-21T17:50:11.810Z,4.10
2022-08-21T17:52:40.137Z,4.05
2022-08-21T17:55:07.700Z,3.92
2022-08-21T17:57:35.474Z,4.18
2022-08-21T18:00:07.431Z,3.80
2022-08-21T18:02:40.265Z,4.00
2022-08-21T18:05:10.013Z,3.80
2022-08-21T18:07:38.292Z,3.87
2022-08-21T18:10:09.080Z,3.80
2022-08-21T18:12:38.831Z,3.72
2022-08-21T18:15:07.048Z,3.65
2022-08-21T18:17:35.459Z,3.60
2022-08-21T18:20:06.068Z,3.60
2022-08-21T18:22:33.891Z,3.80
2022-08-21T18:25:01.610Z,3.37
2022-08-21T18:27:30.058Z,3.40
2022-08-21T18:29:59.148Z,3.70
2022-08-21T18:32:31.736Z,3.50
2022-08-21T18:35:02.589Z,3.30
2022-08-21T18:37:31.273Z,3.10
2022-08-21T18:39:59.974Z,3.60
2022-08-21T18:42:29.870Z,3.20
2022-08-21T18:45:03.199Z,3.72
2022-08-21T18:47:37.480Z,3.30
2022-08-21T18:50:10.819Z,3.25
2022-08-21T18:52:52.506Z,3.30
2022-08-21T18:55:27.889Z,3.22
2022-08-21T18:57:57.585Z,3.30
2022-08-21T19:00:32.093Z,3.25
2022-08-21T19:03:05.857Z,3.23
2022-08-21T19:05:36.970Z,3.03
2022-08-21T19:08:09.347Z,2.80
2022-08-21T19:10:44.277Z,2.53
2022-08-21T19:13:17.152Z,2.47
2022-08-21T19:15:50.651Z,2.47
2022-08-21T19:18:27.932Z,2.78
2022-08-21T19:20:58.398Z,2.60
2022-08-21T19:23:30.408Z,2.70
2022-08-21T19:26:02.514Z,2.92
2022-08-21T19:28:44.743Z,2.70
2022-08-21T19:31:26.492Z,2.60
2022-08-21T19:34:06.050Z,2.65
2022-08-21T19:36:35.673Z,2.70
2022-08-21T19:39:08.157Z,2.97
2022-08-21T19:41:58.099Z,2.78
2022-08-21T19:44:28.651Z,2.70
2022-08-21T19:46:58.849Z,2.60
2022-08-21T19:49:29.867Z,2.75
2022-08-21T19:52:02.401Z,2.78
2022-08-21T19:54:44.163Z,2.58
2022-08-21T19:57:12.463Z,2.85
2022-08-21T19:59:41.772Z,2.70
2022-08-21T20:02:11.660Z,2.60
2022-08-21T20:07:28.959Z,2.53
2022-08-21T20:10:00.467Z,2.30
2022-08-21T20:12:28.816Z,2.30
2022-08-21T20:14:57.347Z,2.70
2022-08-21T20:17:26.114Z,2.47
2022-08-21T20:19:55.245Z,2.33
2022-08-21T20:22:25.264Z,2.25
2022-08-21T20:24:55.214Z,2.30
2022-08-21T20:27:24.854Z,2.20
2022-08-21T20:29:53.201Z,1.98
2022-08-21T20:32:22.420Z,2.12
2022-08-21T20:34:52.188Z,2.10
2022-08-21T20:37:36.401Z,2.15
2022-08-21T20:40:11.547Z,2.17
2022-08-21T20:42:44.705Z,2.20
2022-08-21T20:45:19.588Z,2.05
2022-08-21T20:47:48.382Z,2.20
2022-08-21T20:50:22.681Z,2.30
2022-08-21T20:52:52.720Z,2.30
2022-08-21T20:55:29.190Z,2.30
2022-08-21T20:58:03.246Z,2.30
2022-08-21T21:00:34.258Z,2.40
2022-08-21T21:03:17.621Z,2.47
2022-08-21T21:06:01.505Z,2.60
2022-08-21T21:08:53.810Z,3.00
2022-08-21T21:11:28.832Z,2.78
2022-08-21T21:14:02.780Z,3.00
2022-08-21T21:16:40.729Z,3.00
2022-08-21T21:19:20.839Z,3.35
2022-08-21T21:22:01.039Z,3.10
2022-08-21T21:24:36.722Z,3.35
2022-08-21T21:27:11.981Z,3.20
2022-08-21T21:29:46.111Z,3.00
2022-08-21T21:32:18.110Z,3.03
2022-08-21T21:34:46.866Z,3.20
2022-08-21T21:37:56.986Z,3.20
2022-08-21T21:40:50.059Z,3.25
2022-08-21T21:44:01.949Z,3.70
2022-08-21T21:46:54.453Z,3.50
2022-08-21T21:49:52.770Z,3.67
2022-08-21T21:52:45.890Z,3.55
2022-08-21T21:55:49.365Z,3.80
2022-08-21T21:58:57.320Z,3.70
2022-08-21T22:01:54.155Z,3.72
2022-08-21T22:04:52.536Z,3.90
2022-08-21T22:07:35.187Z,4.10
2022-08-21T22:10:19.755Z,4.15
2022-08-21T22:13:26.678Z,4.60
2022-08-21T22:15:55.585Z,4.68
2022-08-21T22:18:26.935Z,4.80
2022-08-21T22:21:10.582Z,4.60
2022-08-21T22:23:42.770Z,4.87
2022-08-21T22:26:15.084Z,4.45
2022-08-21T22:28:44.777Z,5.15
2022-08-21T22:31:19.760Z,4.85
2022-08-21T22:34:06.681Z,4.67
2022-08-21T22:36:51.635Z,4.60
2022-08-21T22:39:38.636Z,4.90
2022-08-21T22:42:27.481Z,4.40
2022-08-21T22:44:57.466Z,4.68
2022-08-21T22:47:38.567Z,5.07
2022-08-21T22:50:26.075Z,5.18
2022-08-21T22:52:57.039Z,5.28
2022-08-21T22:55:37.919Z,5.05
2022-08-21T22:58:21.371Z,5.20
2022-08-21T23:00:55.088Z,5.10
2022-08-21T23:03:27.151Z,5.45
2022-08-21T23:06:00.699Z,5.65
2022-08-21T23:11:42.943Z,5.53
2022-08-21T23:17:05.245Z,5.72
2022-08-21T23:19:50.523Z,5.43
2022-08-21T23:22:44.258Z,5.33
2022-08-21T23:25:31.965Z,5.43
2022-08-21T23:28:07.703Z,5.40
2022-08-21T23:30:52.769Z,5.28
2022-08-21T23:33:35.379Z,5.07
2022-08-21T23:36:51.757Z,5.07
2022-08-21T23:39:42.673Z,5.20
2022-08-21T23:42:17.954Z,5.12
2022-08-21T23:45:13.842Z,4.97
2022-08-21T23:47:51.040Z,4.68
2022-08-21T23:50:26.101Z,5.00
2022-08-21T23:52:56.825Z,4.78
2022-08-21T23:55:43.145Z,5.00
2022-08-21T23:58:29.630Z,4.97
